AirNav   $300 off a Bose A20 aviation headset
 
 637 users online  

T39 Archer City Municipal Airport
Archer City, Texas, USA

GOING TO ARCHER CITY?


FAA INFORMATION EFFECTIVE 28 FEBRUARY 2019

Location

FAA Identifier: T39
Lat/Long: 33-34-56.3740N / 098-37-07.2050W
33-34.939567N / 098-37.120083W
33.5823261 / -98.6186681
(estimated)
Elevation: 1065 ft. / 325 m (estimated)
Variation: 07E (1985)
From city: 1 mile SE of ARCHER CITY, TX
Time zone: UTC -6 (UTC -5 during Daylight Saving Time)
Zip code: 76351

Airport Operations

Airport use: Open to the public
Activation date: 12/1977
Control tower: no
ARTCC: FORT WORTH CENTER
FSS: FORT WORTH FLIGHT SERVICE STATION
NOTAMs facility: FTW (NOTAM-D service available)
Attendance: UNATNDD
Wind indicator: lighted
Segmented circle: no

Airport Communications

CTAF: 122.9
WX AWOS-3 at CWC (18 nm N): 119.625 (940-766-2967)

Nearby radio navigation aids

VOR radial/distance  VOR name  Freq  Var
SPSr173/24.3WICHITA FALLS VORTAC112.7010E
UKWr268/40.0BOWIE VORTAC117.1506E

 
NDB name  Hdg/Dist  Freq  Var  ID
SCOTLAND204/13.734405ESKB ... -.- -...
GRAHAM339/25.737107EGHX --. .... -..-

Airport Services

Parking: tiedowns
Airframe service: MINOR
Powerplant service: MINOR
Bottled oxygen: NONE
Bulk oxygen: NONE

Runway Information

Runway 17/35

Dimensions: 3200 x 60 ft. / 975 x 18 m
Surface: asphalt, in poor condition
LOOSE GRVL, TALL GRASS AND POT HOLES ON RY.
Weight bearing capacity: 
Single wheel: 12.5
Runway edge markings: RY MARKINGS FADED.
RUNWAY 17  RUNWAY 35
Gradient: 0.5%0.5%
Traffic pattern: leftleft
Markings: basic, in poor conditionbasic, in poor condition
Obstructions: 15 ft. road, 500 ft. from runway, 20:1 slope to clearnone

Airport Ownership and Management from official FAA records

Ownership: Privately-owned
Owner: VALTER DELLE-NEBBIA
P.O. BOX 734
ARCHER CITY, TX 76351
Phone 940-574-4990
Manager: VALTER DELLE-NEBBIA
P.O. BOX 734
ARCHER CITY, TX 76351
Phone 940-574-4990
MGR CELL 940-631-4519.

Airport Operational Statistics

Aircraft based on the field: 16
Single engine airplanes: 15
Multi engine airplanes: 1
    
Aircraft operations: avg 88/week *
98% local general aviation
2% transient general aviation
* for 12-month period ending 09 April 2015

Additional Remarks

WILDLIFE ON AND INVOF ARPT.
NOTAM FILED RWY IS CLOSED. NO TRESPASSING SIGN ON FRONT GATE.

Instrument Procedures

There are no published instrument procedures at T39.

Some nearby airports with instrument procedures:

KONY - Olney Municipal Airport (17 nm SW)
KCWC - Kickapoo Downtown Airport (18 nm N)
F14 - Wichita Valley Airport (22 nm N)
KSPS - Sheppard Air Force Base/Wichita Falls Municipal Airport (25 nm N)
KRPH - Graham Municipal Airport (28 nm S)
 
Loc | Ops | Rwys | IFR | FBO | Links
Com | Nav | Svcs | Stats | Notes
Area around T39 (Archer City Municipal Airport)
 
Road maps at: MapQuest Bing Google
 
Aerial photo
No photo
 
Sectional chart

 
Airport distance calculator
Flying to Archer City Municipal Airport? Find the distance to fly.

From to T39

Sunrise and sunset
Times for 26-Mar-2019
 Local
(UTC-5)
 Zulu
(UTC)
Morning civil twilight07:0612:06
Sunrise07:3112:31
Sunset19:4900:49
Evening civil twilight20:1401:14

Current date and time
Zulu (UTC)  26-Mar-2019 11:30:17
Local (UTC-5)  26-Mar-2019 06:30:17
 
METAR
KCWC 
18nm N 
261115Z AUTO 00000KT 10SM CLR 07/05 A3036 RMK AO2 T00680052
KSPS 
25nm N 
261052Z 35005KT 8SM CLR 06/05 A3033 RMK AO2 SLP266 T00560050 $
KRPH 
29nm S 
261110Z AUTO 00000KT 10SM CLR 06/06 A3031 RMK AO2 T00580055
TAF
KSPS 
25nm N 
260521Z 2606/2706 02008KT P6SM SKC FM261000 05004KT 3SM BR SKC FM261500 12005KT P6SM SCT025
NOTAMs
Click for the latest NOTAMs
NOTAMs are issued by the DoD/FAA and will open in a separate window not controlled by AirNav.

 

 
 

Would you like to see your business listed on this page?

 If your business provides an interesting product or service to pilots, flight crews, aircraft, or users of the Archer City Municipal Airport, you should consider listing it here.  To start the listing process, click on the button below
 
Add a business
 

Other Pages about Archer City Municipal Airport

Update a link
 
Copyright © AirNav, LLC. All rights reserved. Privacy Policy  Contact